Badger Spring Valley, Nevada Weather observations

Data are for 10 minute period ending at time listed.
 Day   Time   Solar   Ave.   Ave.  Ave.  Vector  Max.   Baro.   Total    
  of    of     Rad.   Air    Rel.  Wind   Wind   Wind  Press.  Precip.   
Year   Day            Temp.  Hum.  Speed  Dir.   Gust                    
2014   (PST)  Kw/m2    F      %     mph   deg.    mph    mb.     in.     
-------------------------------------------------------------------------
 239   19:20   0.00   70.6    25    4.1   280     6.1   553.3    0.00 
 239   19:30   0.00   70.1    25    6.0   282     8.2   552.0    0.00 
 239   19:40   0.00   70.0    25    6.3   283     7.9   553.2    0.00 
 239   19:50   0.00   69.7    25    6.6   284     8.3   553.1    0.00 
 239   20:00   0.00   69.2    26    7.7   284    10.1   553.2    0.00 
 239   20:10   0.00   69.3    26    7.4   282     9.6   553.1    0.00 
 239   20:20   0.00   69.0    26    8.2   284    10.3   553.0    0.00 
 239   20:30   0.00   68.9    26    7.9   284     9.8   553.0    0.00 
 239   20:40   0.00   68.9    26    8.1   286    10.1   543.9    0.00 
 239   20:50   0.00   68.7    26    9.4   285    11.8   532.7    0.00 
 239   21:00   0.00   69.4    26    8.8   284    10.4   529.0    0.00 
 239   21:10   0.00   70.0    25   10.0   292    12.1   520.7    0.00 
 239   21:20   0.00   69.3    26    8.2   292     9.6   526.4    0.00 
 239   21:30   0.00   69.3    25    9.3   291    10.5   528.1    0.00 
 239   21:40   0.00   69.3    25    8.8   292     9.6   529.8    0.00 
 239   21:50   0.00   69.1    25    8.8   291     9.6   520.8    0.00 
 239   22:00   0.00   69.1    25    8.2   293     9.3   534.5    0.00 
 239   22:10   0.00   69.1    24    7.6   293     8.6   525.9    0.00 
 239   22:20   0.00   68.8    24    7.3   293     8.9   528.4    0.00 
 239   22:30   0.00   68.0    24    7.9   293     9.2   545.0    0.00 
 239   22:40   0.00   68.2    24    7.8   292     8.9   552.9    0.00 
 239   22:50   0.00   68.5    24    7.2   290     8.6   552.9    0.00 
 239   23:00   0.00   67.8    24    8.0   290     9.1   552.9    0.00 
 239   23:10   0.00   67.5    24    7.2   294     8.5   552.9    0.00 
 239   23:20   0.00   67.6    24    7.3   293     8.5   552.9    0.00 
 239   23:30   0.00   68.4    23    7.0   288     8.5   552.7    0.00 
 239   23:40   0.00   68.2    23    7.2   291     8.3   552.7    0.00 
 239   23:50   0.00   67.1    24    8.0   295     9.5   552.7    0.00 
 240    0:00   0.00   66.9    24    6.7   294     8.8   552.7    0.00 
 240    0:10   0.00   67.9    23    6.8   286     7.7   552.6    0.00 
 240    0:20   0.00   67.3    24    5.7   286     7.5   552.6    0.00 
 240    0:30   0.00   65.8    25    5.1   277     6.9   552.4    0.00 
 240    0:40   0.00   65.0    26    4.8   279     6.1   552.4    0.00 
 240    0:50   0.00   66.4    25    4.3   276     5.7   552.4    0.00 
 240    1:00   0.00   65.5    26    4.4   277     5.6   552.4    0.00 
 240    1:10   0.00   65.2    26    5.5   287     6.6   552.4    0.00 
 240    1:20   0.00   65.6    26    5.7   278     7.0   542.1    0.00 
 240    1:30   0.00   65.2    27    6.6   281     8.0   552.3    0.00 
 240    1:40   0.00   66.1    26    5.0   278     6.1   552.3    0.00 
 240    1:50   0.00   64.8    27    6.2   288     7.7   552.3    0.00 
 240    2:00   0.00   64.9    28    6.1   292     8.0   552.3    0.00 
 240    2:10   0.00   65.4    27    5.2   279     6.2   552.3    0.00 
 240    2:20   0.00   64.9    28    5.3   294     6.5   552.3    0.00 
 240    2:30   0.00   64.5    28    3.9   296     5.2   543.7    0.00 
 240    2:40   0.00   64.6    28    5.2   301     6.5   509.9    0.00 
 240    2:50   0.00   64.0    28    6.6   301     7.9   509.2    0.00 
 240    3:00   0.00   64.3    27    7.1   297     8.4   509.7    0.00 
 240    3:10   0.00   65.0    26    7.1   299     8.3   508.5    0.00 
 240    3:20   0.00   65.0    26    5.8   300     7.7   507.7    0.00 
 240    3:30   0.00   65.6    26    4.8   296     7.7   505.3    0.00 
 240    3:40   0.00   65.8    25    3.5   298     5.4   506.1    0.00 
 240    3:50   0.00   65.8    25    2.6   269     4.9   506.5    0.00 
 240    4:00   0.00   64.2    27    2.7   298     5.5   503.6    0.00 
 240    4:10   0.00   62.6    29    1.8   313     3.3   503.8    0.00 
 240    4:20   0.00   62.7    29    3.2   303     4.7   505.0    0.00 
 240    4:30   0.00   62.5    29    2.8   320     4.5   501.6    0.00 
 240    4:40   0.00   63.1    28    2.5   319     3.7   500.9    0.00 
 240    4:50   0.00   62.5    29    2.7   318     3.9   500.7    0.00 
 240    5:00   0.00   62.5    29    1.9   316     5.4   501.9    0.00 
 240    5:10   0.00   62.9    29    2.7   314     5.8   501.7    0.00 
 240    5:20   0.01   63.3    29    1.9   284     3.2   502.4    0.00 
 240    5:30   0.03   63.9    28    2.2   290     4.5   501.1    0.00 
 240    5:40   0.06   65.0    27    2.6   302     4.2   503.1    0.00 
 240    5:50   0.09   66.8    26    4.0   286     5.8   507.6    0.00 
 240    6:00   0.12   68.9    25    2.1   287     4.4   508.5    0.00 
 240    6:10   0.15   68.4    27    1.9    34     3.5   505.9    0.00 
 240    6:20   0.18   70.0    24    1.9   352     3.1   503.3    0.00 
 240    6:30   0.22   73.1    21    0.4   253     1.5   502.2    0.00 
 240    6:40   0.26   75.4    19    0.5   146     2.3   502.2    0.00 
 240    6:50   0.29   76.1    19    2.0    67     3.4   501.2    0.00 
 240    7:00   0.33   75.8    19    2.4   138     4.3   500.8    0.00 
 240    7:10   0.37   75.7    20    2.7   128     5.1   500.8    0.00 
 240    7:20   0.41   76.2    20    2.7   101     5.3   500.8    0.00 
 240    7:30   0.45   76.2    21    3.3   101     5.8   501.0    0.00 
 240    7:40   0.48   76.3    20    3.7   108     6.9   501.0    0.00 
 240    7:50   0.52   76.7    19    4.0   114     6.7   501.0    0.00 
 240    8:00   0.56   76.8    19    3.2    74     6.2   501.1    0.00 
 240    8:10   0.59   77.5    19    3.3   117     7.5   501.1    0.00 
 240    8:20   0.63   77.6    19    4.1    94     7.0   501.0    0.00 
 240    8:30   0.66   77.9    19    5.4    97     8.8   501.2    0.00 
 240    8:40   0.69   78.6    18    6.6   122    11.0   501.2    0.00 
 240    8:50   0.72   79.1    19    7.7   120    15.1   501.2    0.00 
 240    9:00   0.76   79.1    19    8.0   123    13.8   501.2    0.00 
 240    9:10   0.78   78.9    19    8.2   114    13.8   501.2    0.00 
 240    9:20   0.81   79.1    19    8.8    82    13.3   501.2    0.00 
 240    9:30   0.84   79.1    20    6.6    71    13.0   501.2    0.00 
 240    9:40   0.86   80.2    20    7.2    60    11.1   501.2    0.00 
 240    9:50   0.88   79.8    19    5.7    57    13.9   501.2    0.00 
 240   10:00   0.91   80.3    19    7.3   121    13.3   501.2    0.00 
 240   10:10   0.92   80.5    19    6.0   123    13.4   501.2    0.00 
 240   10:20   0.94   82.1    17    4.5   134     9.1   501.2    0.00 
 240   10:30   0.96   82.9    14    4.6   204    11.7   501.2    0.00 
 240   10:40   0.98   83.4    14    6.0   202    10.4   501.3    0.00 
 240   10:50   0.99   83.7    14    8.6   202    13.4   501.3    0.00 
 240   11:00   1.00   83.8    14    7.4   213    12.3   501.3    0.00 
 240   11:10   1.01   83.9    14    8.3   209    14.5   501.3    0.00 
 240   11:20   1.01   84.0    13    6.2   196    10.2   501.3    0.00 
 240   11:30   1.01   84.9    13    6.9   224    14.8   501.3    0.00 
 240   11:40   1.02   84.5    14    4.9   242     9.1   501.2    0.00 
 240   11:50   1.02   85.1    13    8.7   171    13.7   501.3    0.00 
 240   12:00   1.02   85.0    13    5.7   107    13.3   501.3    0.00 
 240   12:10   1.01   85.8    14    9.3   103    15.1   501.3    0.00 
 240   12:20   1.00   84.6    15   11.2    60    18.0   501.3    0.00 
 240   12:30   0.94   83.9    15    6.3    31    14.5   501.3    0.00 
 240   12:40   0.99   84.0    15    5.5    72    12.3   501.3    0.00 
 240   12:50   0.98   84.6    14    6.2    78    15.6   501.3    0.00 
 240   13:00   0.97   85.3    13    5.4   318    13.5   501.3    0.00 
 240   13:10   0.96   86.2    12    8.6   300    13.0   501.3    0.00 
 240   13:20   0.94   85.7    12    5.4   296    14.5   501.3    0.00 
 240   13:30   0.92   86.5    12    7.8   262    16.5   501.3    0.00 
 240   13:40   0.90   87.2    12   10.0   265    17.9   501.3    0.00 
 240   13:50   0.88   86.3    13    5.1   254    15.3   501.3    0.00 
 240   14:00   0.86   87.6    12    9.5   274    16.8   501.3    0.00 
 240   14:10   0.83   87.3    12   11.4   281    18.2   501.3    0.00 
 240   14:20   0.81   87.3    12    7.4   303    17.4   501.3    0.00 
 240   14:30   0.78   87.1    11    9.8   327    17.0   501.4    0.00 
 240   14:40   0.75   87.1    11    6.5   286    13.4   501.8    0.00 
 240   14:50   0.72   87.3    11    6.4   343    12.8   502.0    0.00 
 240   15:00   0.69   87.4    11    4.3   179    15.0   502.1    0.00 
 240   15:10   0.66   87.7    11    6.4   289    11.6   502.2    0.00 
 240   15:20   0.62   87.5    11    9.7   244    16.4   502.1    0.00 
 240   15:30   0.59   87.9    11    8.1   252    13.9   501.9    0.00 
 240   15:40   0.56   87.3    11    8.2   261    18.6   501.5    0.00 
 240   15:50   0.52   88.0    11    7.3   220    15.3   502.6    0.00 
 240   16:00   0.48   87.6    11    8.3   246    16.5   504.3    0.00 
 240   16:10   0.44   87.2    11   10.6   238    16.6   526.5    0.00 
 240   16:20   0.40   87.2    11    9.4   260    16.7   518.0    0.00 
 240   16:30   0.36   86.6    11    6.5   244    11.2   519.4    0.00 
 240   16:40   0.32   86.7    12    8.8   208    16.5   501.5    0.00 
 240   16:50   0.29   86.3    12    6.3   171    11.8   501.6    0.00 
 240   17:00   0.25   86.3    12    8.0   203    12.9   501.5    0.00 
 240   17:10   0.21   86.1    12    6.7   231    10.7   501.5    0.00 
 240   17:20   0.18   85.9    12    5.3   274     9.6   501.8    0.00 
 240   17:30   0.14   85.9    12    4.7   241     9.0   504.8    0.00 
 240   17:40   0.11   84.7    12    8.0   240    12.8   507.4    0.00 
 240   17:50   0.07   83.8    13    6.2   236     9.3   501.3    0.00 
 240   18:00   0.02   82.0    14    3.9   269     7.2   501.6    0.00 
 240   18:10   0.01   80.1    14    4.0   305     6.3   502.1    0.00 
 240   18:20   0.01   78.5    15    4.2   284     5.8   502.0    0.00 
 240   18:30   0.00   77.8    15    5.0   304     6.4   502.8    0.00 
 240   18:40   0.00   77.2    15    3.9   305     6.0   504.8    0.00 
 240   18:50   0.00   77.0    16    1.1   259     2.3   503.1    0.00 
 240   19:00   0.00   74.6    17    1.7   291     4.8   501.3    0.00 
 240   19:10   0.00   73.8    18    3.6   294     5.5   501.1    0.00 

Return to Badger Spring Valley graphs page.


Western Regional Climate Center,wrcc@dri.edu